sensor_id;sensor_type;location;lat;lon;timestamp;P1;durP1;ratioP1;P2;durP2;ratioP2
70014;SDS011;57358;51.094;6.760;2023-06-24T00:02:20;11.25;;;7.10;;
70014;SDS011;57358;51.094;6.760;2023-06-24T00:04:50;7.53;;;6.93;;
70014;SDS011;57358;51.094;6.760;2023-06-24T00:07:18;8.18;;;7.22;;
70014;SDS011;57358;51.094;6.760;2023-06-24T00:09:45;17.10;;;7.15;;
70014;SDS011;57358;51.094;6.760;2023-06-24T00:12:12;7.15;;;6.65;;
70014;SDS011;57358;51.094;6.760;2023-06-24T00:14:45;6.80;;;6.30;;
70014;SDS011;57358;51.094;6.760;2023-06-24T00:17:12;7.75;;;7.00;;
70014;SDS011;57358;51.094;6.760;2023-06-24T00:19:39;7.20;;;6.60;;
70014;SDS011;57358;51.094;6.760;2023-06-24T00:22:05;8.73;;;6.88;;
70014;SDS011;57358;51.094;6.760;2023-06-24T00:24:32;7.10;;;6.60;;
70014;SDS011;57358;51.094;6.760;2023-06-24T00:26:58;7.55;;;6.82;;
70014;SDS011;57358;51.094;6.760;2023-06-24T00:29:25;8.02;;;7.22;;
70014;SDS011;57358;51.094;6.760;2023-06-24T00:31:51;7.40;;;6.70;;
70014;SDS011;57358;51.094;6.760;2023-06-24T00:34:18;8.05;;;7.20;;
70014;SDS011;57358;51.094;6.760;2023-06-24T00:36:46;7.18;;;6.68;;
70014;SDS011;57358;51.094;6.760;2023-06-24T00:39:13;7.30;;;6.80;;
70014;SDS011;57358;51.094;6.760;2023-06-24T00:41:39;7.00;;;6.45;;
70014;SDS011;57358;51.094;6.760;2023-06-24T00:44:06;6.63;;;6.13;;
70014;SDS011;57358;51.094;6.760;2023-06-24T00:46:33;11.30;;;6.65;;
70014;SDS011;57358;51.094;6.760;2023-06-24T00:49:01;7.00;;;6.50;;
70014;SDS011;57358;51.094;6.760;2023-06-24T00:51:28;7.70;;;7.10;;
70014;SDS011;57358;51.094;6.760;2023-06-24T00:53:59;7.95;;;7.15;;
70014;SDS011;57358;51.094;6.760;2023-06-24T00:56:31;7.22;;;6.53;;
70014;SDS011;57358;51.094;6.760;2023-06-24T00:59:00;7.55;;;6.90;;
70014;SDS011;57358;51.094;6.760;2023-06-24T01:01:29;7.97;;;7.20;;
70014;SDS011;57358;51.094;6.760;2023-06-24T01:04:02;7.38;;;6.78;;
70014;SDS011;57358;51.094;6.760;2023-06-24T01:06:29;7.20;;;6.60;;
70014;SDS011;57358;51.094;6.760;2023-06-24T01:08:57;7.55;;;6.85;;
70014;SDS011;57358;51.094;6.760;2023-06-24T01:11:26;15.13;;;7.05;;
70014;SDS011;57358;51.094;6.760;2023-06-24T01:13:53;8.45;;;7.10;;
70014;SDS011;57358;51.094;6.760;2023-06-24T01:16:23;7.20;;;6.60;;
70014;SDS011;57358;51.094;6.760;2023-06-24T01:18:59;6.85;;;6.45;;
70014;SDS011;57358;51.094;6.760;2023-06-24T01:21:50;6.85;;;6.35;;
70014;SDS011;57358;51.094;6.760;2023-06-24T01:24:41;7.87;;;7.17;;
70014;SDS011;57358;51.094;6.760;2023-06-24T01:30:17;7.70;;;7.13;;
70014;SDS011;57358;51.094;6.760;2023-06-24T01:32:50;7.43;;;6.82;;
70014;SDS011;57358;51.094;6.760;2023-06-24T01:35:31;7.22;;;6.68;;
70014;SDS011;57358;51.094;6.760;2023-06-24T01:38:07;7.20;;;6.60;;
70014;SDS011;57358;51.094;6.760;2023-06-24T01:40:41;6.75;;;6.28;;
70014;SDS011;57358;51.094;6.760;2023-06-24T01:43:11;7.78;;;7.18;;
70014;SDS011;57358;51.094;6.760;2023-06-24T01:45:42;10.93;;;7.03;;
70014;SDS011;57358;51.094;6.760;2023-06-24T01:48:15;7.10;;;6.60;;
70014;SDS011;57358;51.094;6.760;2023-06-24T01:51:01;7.75;;;7.15;;
70014;SDS011;57358;51.094;6.760;2023-06-24T01:53:34;6.88;;;6.38;;
70014;SDS011;57358;51.094;6.760;2023-06-24T01:56:09;7.20;;;6.70;;
70014;SDS011;57358;51.094;6.760;2023-06-24T01:58:39;8.05;;;6.85;;
70014;SDS011;57358;51.094;6.760;2023-06-24T02:01:08;7.55;;;6.95;;
70014;SDS011;57358;51.094;6.760;2023-06-24T02:03:35;7.45;;;6.85;;
70014;SDS011;57358;51.094;6.760;2023-06-24T02:06:03;8.00;;;7.32;;
70014;SDS011;57358;51.094;6.760;2023-06-24T02:08:32;6.82;;;6.35;;
70014;SDS011;57358;51.094;6.760;2023-06-24T02:11:00;7.20;;;6.60;;
70014;SDS011;57358;51.094;6.760;2023-06-24T02:13:28;7.63;;;7.03;;
70014;SDS011;57358;51.094;6.760;2023-06-24T02:16:02;10.77;;;6.95;;
70014;SDS011;57358;51.094;6.760;2023-06-24T02:18:32;7.55;;;6.80;;
70014;SDS011;57358;51.094;6.760;2023-06-24T02:21:00;8.10;;;6.95;;
70014;SDS011;57358;51.094;6.760;2023-06-24T02:23:29;8.43;;;7.63;;
70014;SDS011;57358;51.094;6.760;2023-06-24T02:25:57;8.07;;;7.38;;
70014;SDS011;57358;51.094;6.760;2023-06-24T02:28:24;8.25;;;7.47;;
70014;SDS011;57358;51.094;6.760;2023-06-24T02:30:51;8.90;;;7.97;;
70014;SDS011;57358;51.094;6.760;2023-06-24T02:33:18;7.90;;;7.10;;
70014;SDS011;57358;51.094;6.760;2023-06-24T02:35:44;8.68;;;7.78;;
70014;SDS011;57358;51.094;6.760;2023-06-24T02:38:12;9.90;;;7.25;;
70014;SDS011;57358;51.094;6.760;2023-06-24T02:40:38;7.93;;;7.32;;
70014;SDS011;57358;51.094;6.760;2023-06-24T02:43:05;7.45;;;6.93;;
70014;SDS011;57358;51.094;6.760;2023-06-24T02:45:31;8.30;;;7.50;;
70014;SDS011;57358;51.094;6.760;2023-06-24T02:47:58;9.13;;;8.27;;
70014;SDS011;57358;51.094;6.760;2023-06-24T02:50:26;9.48;;;8.05;;
70014;SDS011;57358;51.094;6.760;2023-06-24T02:52:53;8.13;;;7.43;;
70014;SDS011;57358;51.094;6.760;2023-06-24T02:55:21;8.70;;;7.90;;
70014;SDS011;57358;51.094;6.760;2023-06-24T02:57:47;15.18;;;9.15;;
70014;SDS011;57358;51.094;6.760;2023-06-24T03:00:14;8.75;;;8.00;;
70014;SDS011;57358;51.094;6.760;2023-06-24T03:02:42;10.75;;;8.65;;
70014;SDS011;57358;51.094;6.760;2023-06-24T03:05:11;8.80;;;8.00;;
70014;SDS011;57358;51.094;6.760;2023-06-24T03:07:37;13.05;;;8.55;;
70014;SDS011;57358;51.094;6.760;2023-06-24T03:10:04;8.63;;;7.82;;
70014;SDS011;57358;51.094;6.760;2023-06-24T03:12:32;9.40;;;8.40;;
70014;SDS011;57358;51.094;6.760;2023-06-24T03:14:58;9.00;;;8.15;;
70014;SDS011;57358;51.094;6.760;2023-06-24T03:17:26;9.18;;;8.27;;
70014;SDS011;57358;51.094;6.760;2023-06-24T03:19:52;20.45;;;9.15;;
70014;SDS011;57358;51.094;6.760;2023-06-24T03:22:19;15.27;;;8.88;;
70014;SDS011;57358;51.094;6.760;2023-06-24T03:24:45;9.02;;;8.13;;
70014;SDS011;57358;51.094;6.760;2023-06-24T03:27:12;9.25;;;8.27;;
70014;SDS011;57358;51.094;6.760;2023-06-24T03:29:39;9.45;;;8.23;;
70014;SDS011;57358;51.094;6.760;2023-06-24T03:32:05;8.88;;;7.80;;
70014;SDS011;57358;51.094;6.760;2023-06-24T03:34:32;9.60;;;8.57;;
70014;SDS011;57358;51.094;6.760;2023-06-24T03:36:58;10.68;;;7.85;;
70014;SDS011;57358;51.094;6.760;2023-06-24T03:39:24;9.77;;;8.88;;
70014;SDS011;57358;51.094;6.760;2023-06-24T03:41:51;11.95;;;8.60;;
70014;SDS011;57358;51.094;6.760;2023-06-24T03:44:17;8.43;;;7.63;;
70014;SDS011;57358;51.094;6.760;2023-06-24T03:46:44;14.48;;;8.98;;
70014;SDS011;57358;51.094;6.760;2023-06-24T03:49:10;10.75;;;8.35;;
70014;SDS011;57358;51.094;6.760;2023-06-24T03:51:37;8.93;;;8.07;;
70014;SDS011;57358;51.094;6.760;2023-06-24T03:54:03;11.88;;;8.80;;
70014;SDS011;57358;51.094;6.760;2023-06-24T03:56:29;13.27;;;8.93;;
70014;SDS011;57358;51.094;6.760;2023-06-24T03:58:56;9.80;;;8.77;;
70014;SDS011;57358;51.094;6.760;2023-06-24T04:01:22;10.50;;;8.23;;
70014;SDS011;57358;51.094;6.760;2023-06-24T04:03:49;8.63;;;7.85;;
70014;SDS011;57358;51.094;6.760;2023-06-24T04:06:15;8.90;;;8.25;;
70014;SDS011;57358;51.094;6.760;2023-06-24T04:08:42;8.82;;;8.02;;
70014;SDS011;57358;51.094;6.760;2023-06-24T04:11:09;9.85;;;8.93;;
70014;SDS011;57358;51.094;6.760;2023-06-24T04:13:36;10.68;;;8.45;;
70014;SDS011;57358;51.094;6.760;2023-06-24T04:16:02;9.25;;;8.13;;
70014;SDS011;57358;51.094;6.760;2023-06-24T04:18:28;9.20;;;8.25;;
70014;SDS011;57358;51.094;6.760;2023-06-24T04:20:55;10.75;;;7.82;;
70014;SDS011;57358;51.094;6.760;2023-06-24T04:23:21;8.68;;;7.78;;
70014;SDS011;57358;51.094;6.760;2023-06-24T04:25:48;9.02;;;8.23;;
70014;SDS011;57358;51.094;6.760;2023-06-24T04:28:14;9.77;;;8.77;;
70014;SDS011;57358;51.094;6.760;2023-06-24T04:30:40;8.82;;;8.13;;
70014;SDS011;57358;51.094;6.760;2023-06-24T04:33:08;9.15;;;8.25;;
70014;SDS011;57358;51.094;6.760;2023-06-24T04:35:34;10.95;;;7.30;;
70014;SDS011;57358;51.094;6.760;2023-06-24T04:38:01;10.13;;;8.80;;
70014;SDS011;57358;51.094;6.760;2023-06-24T04:40:28;9.55;;;8.70;;
70014;SDS011;57358;51.094;6.760;2023-06-24T04:42:54;10.73;;;8.60;;
70014;SDS011;57358;51.094;6.760;2023-06-24T04:45:20;9.90;;;8.80;;
70014;SDS011;57358;51.094;6.760;2023-06-24T04:47:47;9.32;;;8.43;;
70014;SDS011;57358;51.094;6.760;2023-06-24T04:50:15;9.98;;;8.45;;
70014;SDS011;57358;51.094;6.760;2023-06-24T04:52:42;9.57;;;8.68;;
70014;SDS011;57358;51.094;6.760;2023-06-24T04:55:09;9.15;;;8.35;;
70014;SDS011;57358;51.094;6.760;2023-06-24T04:57:35;11.07;;;8.23;;
70014;SDS011;57358;51.094;6.760;2023-06-24T05:00:02;10.38;;;8.90;;
70014;SDS011;57358;51.094;6.760;2023-06-24T05:02:29;10.10;;;7.85;;
70014;SDS011;57358;51.094;6.760;2023-06-24T05:04:55;9.30;;;8.18;;
70014;SDS011;57358;51.094;6.760;2023-06-24T05:07:22;8.77;;;8.00;;
70014;SDS011;57358;51.094;6.760;2023-06-24T05:09:48;10.25;;;8.85;;
70014;SDS011;57358;51.094;6.760;2023-06-24T05:12:17;8.70;;;8.05;;
70014;SDS011;57358;51.094;6.760;2023-06-24T05:14:49;8.50;;;7.70;;
70014;SDS011;57358;51.094;6.760;2023-06-24T05:17:19;8.88;;;8.18;;
70014;SDS011;57358;51.094;6.760;2023-06-24T05:19:46;8.38;;;7.57;;
70014;SDS011;57358;51.094;6.760;2023-06-24T05:22:12;9.07;;;8.27;;
70014;SDS011;57358;51.094;6.760;2023-06-24T05:24:39;8.65;;;7.90;;
70014;SDS011;57358;51.094;6.760;2023-06-24T05:27:07;9.88;;;8.07;;
70014;SDS011;57358;51.094;6.760;2023-06-24T05:29:33;8.88;;;8.05;;
70014;SDS011;57358;51.094;6.760;2023-06-24T05:32:00;8.25;;;7.60;;
70014;SDS011;57358;51.094;6.760;2023-06-24T05:34:30;9.07;;;8.25;;
70014;SDS011;57358;51.094;6.760;2023-06-24T05:36:56;8.27;;;7.57;;
70014;SDS011;57358;51.094;6.760;2023-06-24T05:39:23;8.68;;;7.78;;
70014;SDS011;57358;51.094;6.760;2023-06-24T05:41:50;8.15;;;7.57;;
70014;SDS011;57358;51.094;6.760;2023-06-24T05:44:16;8.25;;;7.65;;
70014;SDS011;57358;51.094;6.760;2023-06-24T05:46:45;7.80;;;7.20;;
70014;SDS011;57358;51.094;6.760;2023-06-24T05:49:12;8.80;;;7.93;;
70014;SDS011;57358;51.094;6.760;2023-06-24T05:51:38;8.63;;;7.93;;
70014;SDS011;57358;51.094;6.760;2023-06-24T05:54:05;9.18;;;8.38;;
70014;SDS011;57358;51.094;6.760;2023-06-24T05:56:31;9.10;;;8.30;;
70014;SDS011;57358;51.094;6.760;2023-06-24T05:58:58;10.23;;;8.48;;
70014;SDS011;57358;51.094;6.760;2023-06-24T06:01:25;9.63;;;8.73;;
70014;SDS011;57358;51.094;6.760;2023-06-24T06:03:51;8.50;;;7.63;;
70014;SDS011;57358;51.094;6.760;2023-06-24T06:06:18;9.20;;;8.23;;
70014;SDS011;57358;51.094;6.760;2023-06-24T06:08:44;8.98;;;8.07;;
70014;SDS011;57358;51.094;6.760;2023-06-24T06:11:11;9.07;;;8.20;;
70014;SDS011;57358;51.094;6.760;2023-06-24T06:13:37;8.90;;;8.07;;
70014;SDS011;57358;51.094;6.760;2023-06-24T06:16:04;8.18;;;7.55;;
70014;SDS011;57358;51.094;6.760;2023-06-24T06:18:30;9.10;;;8.40;;
70014;SDS011;57358;51.094;6.760;2023-06-24T06:20:57;8.13;;;7.47;;
70014;SDS011;57358;51.094;6.760;2023-06-24T06:23:23;8.52;;;7.43;;
70014;SDS011;57358;51.094;6.760;2023-06-24T06:25:49;9.55;;;8.63;;
70014;SDS011;57358;51.094;6.760;2023-06-24T06:28:16;8.93;;;8.20;;
70014;SDS011;57358;51.094;6.760;2023-06-24T06:30:43;9.07;;;8.30;;
70014;SDS011;57358;51.094;6.760;2023-06-24T06:33:09;8.77;;;8.05;;
70014;SDS011;57358;51.094;6.760;2023-06-24T06:35:36;10.38;;;7.90;;
70014;SDS011;57358;51.094;6.760;2023-06-24T06:38:02;8.70;;;7.90;;
70014;SDS011;57358;51.094;6.760;2023-06-24T06:40:29;9.60;;;8.60;;
70014;SDS011;57358;51.094;6.760;2023-06-24T06:42:55;9.30;;;8.43;;
70014;SDS011;57358;51.094;6.760;2023-06-24T06:45:22;8.27;;;7.68;;
70014;SDS011;57358;51.094;6.760;2023-06-24T06:47:49;8.48;;;7.40;;
70014;SDS011;57358;51.094;6.760;2023-06-24T06:50:16;7.88;;;7.22;;
70014;SDS011;57358;51.094;6.760;2023-06-24T06:52:43;7.57;;;7.05;;
70014;SDS011;57358;51.094;6.760;2023-06-24T06:55:09;7.55;;;6.97;;
70014;SDS011;57358;51.094;6.760;2023-06-24T06:57:36;7.93;;;7.32;;
70014;SDS011;57358;51.094;6.760;2023-06-24T07:00:02;7.93;;;7.20;;
70014;SDS011;57358;51.094;6.760;2023-06-24T07:02:30;7.50;;;6.90;;
70014;SDS011;57358;51.094;6.760;2023-06-24T07:04:56;8.02;;;7.18;;
70014;SDS011;57358;51.094;6.760;2023-06-24T07:07:22;7.50;;;7.00;;
70014;SDS011;57358;51.094;6.760;2023-06-24T07:09:49;8.05;;;6.88;;
70014;SDS011;57358;51.094;6.760;2023-06-24T07:12:15;7.65;;;7.05;;
70014;SDS011;57358;51.094;6.760;2023-06-24T07:14:42;7.68;;;7.18;;
70014;SDS011;57358;51.094;6.760;2023-06-24T07:17:08;7.97;;;7.28;;
70014;SDS011;57358;51.094;6.760;2023-06-24T07:19:35;7.35;;;6.85;;
70014;SDS011;57358;51.094;6.760;2023-06-24T07:22:01;7.40;;;6.85;;
70014;SDS011;57358;51.094;6.760;2023-06-24T07:24:30;7.80;;;7.10;;
70014;SDS011;57358;51.094;6.760;2023-06-24T07:26:56;8.27;;;7.50;;
70014;SDS011;57358;51.094;6.760;2023-06-24T07:29:23;7.70;;;7.20;;
70014;SDS011;57358;51.094;6.760;2023-06-24T07:31:49;8.07;;;7.50;;
70014;SDS011;57358;51.094;6.760;2023-06-24T07:34:16;7.47;;;6.95;;
70014;SDS011;57358;51.094;6.760;2023-06-24T07:36:42;7.40;;;6.90;;
70014;SDS011;57358;51.094;6.760;2023-06-24T07:39:08;8.40;;;6.88;;
70014;SDS011;57358;51.094;6.760;2023-06-24T07:41:35;8.13;;;7.43;;
70014;SDS011;57358;51.094;6.760;2023-06-24T07:44:02;7.53;;;6.90;;
70014;SDS011;57358;51.094;6.760;2023-06-24T07:46:28;7.53;;;7.00;;
70014;SDS011;57358;51.094;6.760;2023-06-24T07:48:56;7.35;;;6.82;;
70014;SDS011;57358;51.094;6.760;2023-06-24T07:51:22;7.20;;;6.70;;
70014;SDS011;57358;51.094;6.760;2023-06-24T07:53:48;7.38;;;6.75;;
70014;SDS011;57358;51.094;6.760;2023-06-24T07:56:15;7.45;;;6.85;;
70014;SDS011;57358;51.094;6.760;2023-06-24T07:58:41;7.22;;;6.68;;
70014;SDS011;57358;51.094;6.760;2023-06-24T08:01:08;7.40;;;6.78;;
70014;SDS011;57358;51.094;6.760;2023-06-24T08:03:34;8.13;;;7.22;;
70014;SDS011;57358;51.094;6.760;2023-06-24T08:06:03;7.25;;;6.70;;
70014;SDS011;57358;51.094;6.760;2023-06-24T08:08:30;7.60;;;7.00;;
70014;SDS011;57358;51.094;6.760;2023-06-24T08:10:56;7.80;;;7.10;;
70014;SDS011;57358;51.094;6.760;2023-06-24T08:13:23;7.90;;;7.30;;
70014;SDS011;57358;51.094;6.760;2023-06-24T08:15:49;8.60;;;7.57;;
70014;SDS011;57358;51.094;6.760;2023-06-24T08:18:15;7.75;;;7.25;;
70014;SDS011;57358;51.094;6.760;2023-06-24T08:20:42;9.98;;;6.60;;
70014;SDS011;57358;51.094;6.760;2023-06-24T08:23:08;7.70;;;7.00;;
70014;SDS011;57358;51.094;6.760;2023-06-24T08:25:35;7.57;;;6.82;;
70014;SDS011;57358;51.094;6.760;2023-06-24T08:28:02;8.05;;;7.25;;
70014;SDS011;57358;51.094;6.760;2023-06-24T08:30:29;7.63;;;7.03;;
70014;SDS011;57358;51.094;6.760;2023-06-24T08:32:55;8.40;;;7.18;;
70014;SDS011;57358;51.094;6.760;2023-06-24T08:35:22;8.68;;;7.10;;
70014;SDS011;57358;51.094;6.760;2023-06-24T08:37:48;7.15;;;6.65;;
70014;SDS011;57358;51.094;6.760;2023-06-24T08:40:15;7.57;;;7.07;;
70014;SDS011;57358;51.094;6.760;2023-06-24T08:42:42;7.82;;;7.20;;
70014;SDS011;57358;51.094;6.760;2023-06-24T08:45:09;8.02;;;7.22;;
70014;SDS011;57358;51.094;6.760;2023-06-24T08:47:36;7.40;;;6.80;;
70014;SDS011;57358;51.094;6.760;2023-06-24T08:50:04;10.55;;;7.03;;
70014;SDS011;57358;51.094;6.760;2023-06-24T08:52:36;9.38;;;7.63;;
70014;SDS011;57358;51.094;6.760;2023-06-24T08:55:08;7.97;;;7.20;;
70014;SDS011;57358;51.094;6.760;2023-06-24T08:57:39;8.00;;;7.25;;
70014;SDS011;57358;51.094;6.760;2023-06-24T09:00:06;7.80;;;7.10;;
70014;SDS011;57358;51.094;6.760;2023-06-24T09:02:36;8.68;;;7.68;;
70014;SDS011;57358;51.094;6.760;2023-06-24T09:05:05;7.85;;;7.15;;
70014;SDS011;57358;51.094;6.760;2023-06-24T09:07:32;7.95;;;7.20;;
70014;SDS011;57358;51.094;6.760;2023-06-24T09:09:58;11.48;;;7.90;;
70014;SDS011;57358;51.094;6.760;2023-06-24T09:12:26;8.43;;;7.70;;
70014;SDS011;57358;51.094;6.760;2023-06-24T09:14:53;7.93;;;7.22;;
70014;SDS011;57358;51.094;6.760;2023-06-24T09:17:19;8.98;;;8.18;;
70014;SDS011;57358;51.094;6.760;2023-06-24T09:19:49;8.48;;;7.68;;
70014;SDS011;57358;51.094;6.760;2023-06-24T09:22:16;9.32;;;7.72;;
70014;SDS011;57358;51.094;6.760;2023-06-24T09:24:46;8.40;;;7.18;;
70014;SDS011;57358;51.094;6.760;2023-06-24T09:27:14;7.95;;;7.25;;
70014;SDS011;57358;51.094;6.760;2023-06-24T09:29:42;7.78;;;7.18;;
70014;SDS011;57358;51.094;6.760;2023-06-24T09:32:09;8.68;;;7.78;;
70014;SDS011;57358;51.094;6.760;2023-06-24T09:34:36;9.90;;;8.07;;
70014;SDS011;57358;51.094;6.760;2023-06-24T09:37:03;15.38;;;8.15;;
70014;SDS011;57358;51.094;6.760;2023-06-24T09:39:34;8.73;;;7.93;;
70014;SDS011;57358;51.094;6.760;2023-06-24T09:42:02;9.88;;;8.02;;
70014;SDS011;57358;51.094;6.760;2023-06-24T09:44:31;8.95;;;7.30;;
70014;SDS011;57358;51.094;6.760;2023-06-24T09:46:58;8.93;;;7.50;;
70014;SDS011;57358;51.094;6.760;2023-06-24T09:49:25;8.30;;;7.60;;
70014;SDS011;57358;51.094;6.760;2023-06-24T09:51:55;7.68;;;7.05;;
70014;SDS011;57358;51.094;6.760;2023-06-24T09:54:27;8.60;;;7.22;;
70014;SDS011;57358;51.094;6.760;2023-06-24T09:57:00;8.18;;;7.38;;
70014;SDS011;57358;51.094;6.760;2023-06-24T09:59:28;8.05;;;7.38;;
70014;SDS011;57358;51.094;6.760;2023-06-24T10:01:56;7.80;;;7.10;;
70014;SDS011;57358;51.094;6.760;2023-06-24T10:04:23;8.88;;;7.97;;
70014;SDS011;57358;51.094;6.760;2023-06-24T10:06:52;8.27;;;7.55;;
70014;SDS011;57358;51.094;6.760;2023-06-24T10:09:19;7.78;;;7.15;;
70014;SDS011;57358;51.094;6.760;2023-06-24T10:11:46;7.90;;;7.28;;
70014;SDS011;57358;51.094;6.760;2023-06-24T10:14:13;8.13;;;7.43;;
70014;SDS011;57358;51.094;6.760;2023-06-24T10:16:41;7.90;;;7.30;;
70014;SDS011;57358;51.094;6.760;2023-06-24T10:19:08;7.35;;;6.85;;
70014;SDS011;57358;51.094;6.760;2023-06-24T10:21:51;7.47;;;6.97;;
70014;SDS011;57358;51.094;6.760;2023-06-24T10:24:32;7.55;;;6.95;;
70014;SDS011;57358;51.094;6.760;2023-06-24T10:27:03;7.05;;;6.55;;
70014;SDS011;57358;51.094;6.760;2023-06-24T10:29:35;8.82;;;8.10;;
70014;SDS011;57358;51.094;6.760;2023-06-24T10:32:09;7.05;;;6.57;;
70014;SDS011;57358;51.094;6.760;2023-06-24T10:39:40;7.10;;;6.70;;
70014;SDS011;57358;51.094;6.760;2023-06-24T10:45:13;6.90;;;6.40;;
70014;SDS011;57358;51.094;6.760;2023-06-24T10:47:48;6.53;;;6.10;;
70014;SDS011;57358;51.094;6.760;2023-06-24T10:50:17;7.13;;;6.53;;
70014;SDS011;57358;51.094;6.760;2023-06-24T10:52:45;7.15;;;6.65;;
70014;SDS011;57358;51.094;6.760;2023-06-24T10:55:13;6.93;;;6.43;;
70014;SDS011;57358;51.094;6.760;2023-06-24T10:57:41;6.80;;;6.40;;
70014;SDS011;57358;51.094;6.760;2023-06-24T11:00:08;6.93;;;6.50;;
70014;SDS011;57358;51.094;6.760;2023-06-24T11:02:35;6.82;;;6.32;;
70014;SDS011;57358;51.094;6.760;2023-06-24T11:05:03;6.72;;;6.25;;
70014;SDS011;57358;51.094;6.760;2023-06-24T11:07:31;6.68;;;6.28;;
70014;SDS011;57358;51.094;6.760;2023-06-24T11:10:01;6.95;;;6.30;;
70014;SDS011;57358;51.094;6.760;2023-06-24T11:12:34;6.93;;;6.53;;
70014;SDS011;57358;51.094;6.760;2023-06-24T11:15:05;7.10;;;6.60;;
70014;SDS011;57358;51.094;6.760;2023-06-24T11:17:36;6.90;;;6.40;;
70014;SDS011;57358;51.094;6.760;2023-06-24T11:20:21;7.00;;;6.45;;
70014;SDS011;57358;51.094;6.760;2023-06-24T11:22:48;6.82;;;6.32;;
70014;SDS011;57358;51.094;6.760;2023-06-24T11:25:23;7.18;;;6.68;;
70014;SDS011;57358;51.094;6.760;2023-06-24T11:27:50;6.70;;;6.20;;
70014;SDS011;57358;51.094;6.760;2023-06-24T11:30:20;6.90;;;6.40;;
70014;SDS011;57358;51.094;6.760;2023-06-24T11:32:46;6.60;;;6.20;;
70014;SDS011;57358;51.094;6.760;2023-06-24T11:35:14;6.32;;;5.93;;
70014;SDS011;57358;51.094;6.760;2023-06-24T11:37:42;6.28;;;5.88;;
70014;SDS011;57358;51.094;6.760;2023-06-24T11:40:10;6.07;;;5.78;;
70014;SDS011;57358;51.094;6.760;2023-06-24T11:42:37;6.72;;;6.32;;
70014;SDS011;57358;51.094;6.760;2023-06-24T11:45:10;6.70;;;6.20;;
70014;SDS011;57358;51.094;6.760;2023-06-24T11:47:41;6.70;;;6.30;;
70014;SDS011;57358;51.094;6.760;2023-06-24T11:50:08;6.43;;;6.03;;
70014;SDS011;57358;51.094;6.760;2023-06-24T11:55:02;6.50;;;6.10;;
70014;SDS011;57358;51.094;6.760;2023-06-24T12:00:14;6.60;;;6.10;;
70014;SDS011;57358;51.094;6.760;2023-06-24T12:02:41;7.10;;;6.50;;
70014;SDS011;57358;51.094;6.760;2023-06-24T12:05:08;6.75;;;6.30;;
70014;SDS011;57358;51.094;6.760;2023-06-24T12:07:34;6.75;;;6.25;;
70014;SDS011;57358;51.094;6.760;2023-06-24T12:10:01;6.85;;;6.38;;
70014;SDS011;57358;51.094;6.760;2023-06-24T12:12:28;7.07;;;6.60;;
70014;SDS011;57358;51.094;6.760;2023-06-24T12:14:54;6.57;;;6.18;;
70014;SDS011;57358;51.094;6.760;2023-06-24T12:17:21;6.82;;;6.43;;
70014;SDS011;57358;51.094;6.760;2023-06-24T12:19:48;6.65;;;6.20;;
70014;SDS011;57358;51.094;6.760;2023-06-24T12:22:14;6.60;;;6.15;;
70014;SDS011;57358;51.094;6.760;2023-06-24T12:24:40;6.50;;;6.10;;
70014;SDS011;57358;51.094;6.760;2023-06-24T12:27:07;6.40;;;6.00;;
70014;SDS011;57358;51.094;6.760;2023-06-24T12:29:35;6.70;;;6.30;;
70014;SDS011;57358;51.094;6.760;2023-06-24T12:32:01;6.57;;;6.10;;
70014;SDS011;57358;51.094;6.760;2023-06-24T12:34:28;6.85;;;6.32;;
70014;SDS011;57358;51.094;6.760;2023-06-24T12:36:54;6.93;;;6.40;;
70014;SDS011;57358;51.094;6.760;2023-06-24T12:39:20;6.80;;;6.40;;
70014;SDS011;57358;51.094;6.760;2023-06-24T12:41:47;6.20;;;5.90;;
70014;SDS011;57358;51.094;6.760;2023-06-24T12:44:13;6.72;;;6.28;;
70014;SDS011;57358;51.094;6.760;2023-06-24T12:46:39;6.40;;;6.00;;
70014;SDS011;57358;51.094;6.760;2023-06-24T12:49:06;6.20;;;5.70;;
70014;SDS011;57358;51.094;6.760;2023-06-24T12:51:32;6.60;;;6.20;;
70014;SDS011;57358;51.094;6.760;2023-06-24T12:53:59;6.25;;;5.95;;
70014;SDS011;57358;51.094;6.760;2023-06-24T12:56:25;6.45;;;5.97;;
70014;SDS011;57358;51.094;6.760;2023-06-24T12:58:52;6.38;;;5.88;;
70014;SDS011;57358;51.094;6.760;2023-06-24T13:01:18;6.35;;;5.93;;
70014;SDS011;57358;51.094;6.760;2023-06-24T13:03:45;6.40;;;6.00;;
70014;SDS011;57358;51.094;6.760;2023-06-24T13:06:12;6.28;;;5.88;;
70014;SDS011;57358;51.094;6.760;2023-06-24T13:08:40;6.60;;;6.10;;
70014;SDS011;57358;51.094;6.760;2023-06-24T13:11:07;6.45;;;6.05;;
70014;SDS011;57358;51.094;6.760;2023-06-24T13:13:34;6.22;;;5.82;;
70014;SDS011;57358;51.094;6.760;2023-06-24T13:16:00;6.53;;;6.13;;
70014;SDS011;57358;51.094;6.760;2023-06-24T13:18:26;6.53;;;6.10;;
70014;SDS011;57358;51.094;6.760;2023-06-24T13:20:53;6.30;;;5.80;;
70014;SDS011;57358;51.094;6.760;2023-06-24T13:23:39;6.38;;;5.88;;
70014;SDS011;57358;51.094;6.760;2023-06-24T13:26:06;6.03;;;5.72;;
70014;SDS011;57358;51.094;6.760;2023-06-24T13:28:32;6.50;;;6.10;;
70014;SDS011;57358;51.094;6.760;2023-06-24T13:31:01;6.35;;;5.93;;
70014;SDS011;57358;51.094;6.760;2023-06-24T13:33:28;6.30;;;5.97;;
70014;SDS011;57358;51.094;6.760;2023-06-24T13:35:55;6.28;;;5.88;;
70014;SDS011;57358;51.094;6.760;2023-06-24T13:38:22;6.28;;;5.97;;
70014;SDS011;57358;51.094;6.760;2023-06-24T13:40:48;6.35;;;5.95;;
70014;SDS011;57358;51.094;6.760;2023-06-24T13:43:15;6.30;;;5.90;;
70014;SDS011;57358;51.094;6.760;2023-06-24T13:45:41;6.38;;;5.82;;
70014;SDS011;57358;51.094;6.760;2023-06-24T13:48:08;6.40;;;6.00;;
70014;SDS011;57358;51.094;6.760;2023-06-24T13:50:34;7.07;;;6.68;;
70014;SDS011;57358;51.094;6.760;2023-06-24T13:53:01;6.60;;;6.00;;
70014;SDS011;57358;51.094;6.760;2023-06-24T13:55:28;6.50;;;6.03;;
70014;SDS011;57358;51.094;6.760;2023-06-24T13:57:54;6.47;;;5.97;;
70014;SDS011;57358;51.094;6.760;2023-06-24T14:00:20;6.47;;;5.88;;
70014;SDS011;57358;51.094;6.760;2023-06-24T14:02:47;6.40;;;6.00;;
70014;SDS011;57358;51.094;6.760;2023-06-24T14:05:14;6.18;;;5.70;;
70014;SDS011;57358;51.094;6.760;2023-06-24T14:07:40;6.32;;;5.88;;
70014;SDS011;57358;51.094;6.760;2023-06-24T14:10:07;6.22;;;5.82;;
70014;SDS011;57358;51.094;6.760;2023-06-24T14:12:33;6.38;;;5.97;;
70014;SDS011;57358;51.094;6.760;2023-06-24T14:15:00;6.40;;;6.00;;
70014;SDS011;57358;51.094;6.760;2023-06-24T14:17:26;6.00;;;5.70;;
70014;SDS011;57358;51.094;6.760;2023-06-24T14:19:53;6.10;;;5.70;;
70014;SDS011;57358;51.094;6.760;2023-06-24T14:22:19;6.00;;;5.70;;
70014;SDS011;57358;51.094;6.760;2023-06-24T14:24:48;6.28;;;5.88;;
70014;SDS011;57358;51.094;6.760;2023-06-24T14:27:15;6.28;;;5.88;;
70014;SDS011;57358;51.094;6.760;2023-06-24T14:29:41;6.43;;;6.03;;
70014;SDS011;57358;51.094;6.760;2023-06-24T14:32:08;6.10;;;5.65;;
70014;SDS011;57358;51.094;6.760;2023-06-24T14:34:34;6.18;;;5.72;;
70014;SDS011;57358;51.094;6.760;2023-06-24T14:37:01;5.80;;;5.50;;
70014;SDS011;57358;51.094;6.760;2023-06-24T14:39:27;6.13;;;5.82;;
70014;SDS011;57358;51.094;6.760;2023-06-24T14:41:56;6.20;;;5.80;;
70014;SDS011;57358;51.094;6.760;2023-06-24T14:44:22;6.68;;;6.28;;
70014;SDS011;57358;51.094;6.760;2023-06-24T14:46:51;6.13;;;5.72;;
70014;SDS011;57358;51.094;6.760;2023-06-24T14:49:17;7.00;;;6.50;;
70014;SDS011;57358;51.094;6.760;2023-06-24T14:51:44;6.10;;;5.80;;
70014;SDS011;57358;51.094;6.760;2023-06-24T14:54:10;5.70;;;5.40;;
70014;SDS011;57358;51.094;6.760;2023-06-24T14:56:37;5.80;;;5.50;;
70014;SDS011;57358;51.094;6.760;2023-06-24T14:59:03;5.72;;;5.43;;
70014;SDS011;57358;51.094;6.760;2023-06-24T15:01:30;5.90;;;5.60;;
70014;SDS011;57358;51.094;6.760;2023-06-24T15:03:56;5.82;;;5.53;;
70014;SDS011;57358;51.094;6.760;2023-06-24T15:06:23;5.90;;;5.50;;